Time;durP1;ratioP1;P1;durP2;ratioP2;P2;SDS_P1;SDS_P2;PMS_P1;PMS_P2;Temp;Humidity;BMP_temperature;BMP_pressure;BME280_temperature;BME280_humidity;BME280_pressure;Samples;Min_cycle;Max_cycle;Signal;HPM_P1;HPM_P2
2022/04/28 00:02:09;;;;;;;;;31.00;26.25;;;;;14.89;48.02;102178.56;4928912;28;45525;-66
2022/04/28 00:04:35;;;;;;;;;33.00;29.25;;;;;14.83;48.54;102178.03;4918666;28;45474;-65
2022/04/28 00:07:01;;;;;;;;;39.25;33.75;;;;;14.80;48.54;102184.38;4932162;28;46001;-69
2022/04/28 00:09:26;;;;;;;;;33.25;31.50;;;;;14.78;48.61;102173.84;4935060;28;45710;-66
2022/04/28 00:11:53;;;;;;;;;43.50;33.75;;;;;14.80;48.67;102179.06;4929005;28;45562;-67
2022/04/28 00:14:19;;;;;;;;;32.50;29.75;;;;;14.78;48.55;102173.84;4931337;28;45621;-68
2022/04/28 00:16:46;;;;;;;;;42.00;36.00;;;;;14.74;48.49;102174.94;4930195;28;46179;-72
2022/04/28 00:19:11;;;;;;;;;45.25;32.00;;;;;14.68;48.42;102177.06;4931922;28;46650;-69
2022/04/28 00:21:37;;;;;;;;;39.00;31.25;;;;;14.63;48.76;102185.28;4930268;28;45561;-68
2022/04/28 00:24:03;;;;;;;;;35.50;31.50;;;;;14.63;48.90;102184.44;4930497;28;45471;-70
2022/04/28 00:26:28;;;;;;;;;30.75;30.75;;;;;14.62;48.81;102182.72;4930471;28;45455;-70
2022/04/28 00:28:58;;;;;;;;;36.50;31.25;;;;;14.58;48.59;102175.84;4930149;28;45696;-68
2022/04/28 00:31:23;;;;;;;;;28.75;28.50;;;;;14.54;48.98;102179.63;4936235;28;45599;-69
2022/04/28 00:33:49;;;;;;;;;33.25;32.75;;;;;14.48;49.00;102165.72;4933519;28;45363;-68
2022/04/28 00:36:15;;;;;;;;;31.50;30.25;;;;;14.45;49.19;102168.53;4931427;28;45719;-69
2022/04/28 00:38:41;;;;;;;;;34.00;29.00;;;;;14.43;49.40;102175.69;4931357;28;45394;-71
2022/04/28 00:41:07;;;;;;;;;38.25;31.75;;;;;14.42;49.29;102168.66;4880485;28;1607420;-69
2022/04/28 00:43:33;;;;;;;;;42.50;31.75;;;;;14.43;49.32;102172.16;4933727;28;45581;-70
2022/04/28 00:45:59;;;;;;;;;46.00;34.25;;;;;14.42;49.21;102176.63;4931237;28;45366;-68
2022/04/28 00:51:12;;;;;;;;;36.25;31.50;;;;;14.41;49.37;102163.44;4936408;28;45559;-71
2022/04/28 00:53:47;;;;;;;;;35.00;29.50;;;;;14.37;49.32;102170.69;4931401;28;45424;-69
2022/04/28 00:56:13;;;;;;;;;34.00;29.50;;;;;14.30;49.40;102173.75;4933038;28;46080;-71
2022/04/28 00:58:39;;;;;;;;;35.75;30.25;;;;;14.24;49.52;102170.50;4931462;28;45425;-68
2022/04/28 01:01:05;;;;;;;;;35.25;33.25;;;;;14.13;49.73;102170.16;4931190;28;45497;-68
2022/04/28 01:03:31;;;;;;;;;34.00;28.25;;;;;14.07;49.78;102169.66;4931810;28;45417;-67
2022/04/28 01:05:58;;;;;;;;;29.50;28.50;;;;;14.02;49.93;102163.72;4917676;28;47183;-68
2022/04/28 01:08:24;;;;;;;;;35.00;30.25;;;;;13.99;50.10;102169.19;4939693;28;45502;-68
2022/04/28 01:10:51;;;;;;;;;36.00;31.25;;;;;13.95;50.13;102165.81;4935161;28;45775;-68
2022/04/28 01:13:17;;;;;;;;;36.75;32.50;;;;;13.89;50.40;102163.47;4935003;28;45680;-68
2022/04/28 01:15:43;;;;;;;;;35.00;28.25;;;;;13.85;50.33;102160.13;4934626;28;45682;-67
2022/04/28 01:18:09;;;;;;;;;26.75;24.00;;;;;13.83;50.38;102163.81;4934808;28;45434;-69
2022/04/28 01:20:34;;;;;;;;;36.75;33.25;;;;;13.84;50.43;102166.38;4941274;28;45454;-67
2022/04/28 01:23:00;;;;;;;;;34.00;30.00;;;;;13.79;50.43;102167.53;4945131;28;45455;-68
2022/04/28 01:25:25;;;;;;;;;28.00;27.00;;;;;13.75;50.52;102161.53;4944771;28;46000;-68
2022/04/28 01:27:51;;;;;;;;;32.75;26.75;;;;;13.71;50.88;102159.97;4945239;28;45211;-68
2022/04/28 01:30:17;;;;;;;;;21.00;16.25;;;;;13.71;50.88;102161.75;4945252;28;45226;-68
2022/04/28 01:32:42;;;;;;;;;28.00;26.25;;;;;13.71;50.77;102159.09;4945414;28;45447;-68
2022/04/28 01:35:09;;;;;;;;;31.00;28.00;;;;;13.71;50.98;102156.44;4940696;28;45977;-68
2022/04/28 01:37:34;;;;;;;;;34.00;29.75;;;;;13.69;50.86;102164.47;4944958;28;45344;-68
2022/04/28 01:40:00;;;;;;;;;28.50;25.50;;;;;13.67;50.88;102161.91;4943099;28;45428;-68
2022/04/28 01:42:26;;;;;;;;;31.25;29.75;;;;;13.61;50.76;102164.84;4945025;28;45394;-68
2022/04/28 01:44:52;;;;;;;;;34.75;27.50;;;;;13.59;51.07;102160.59;4944828;28;45469;-68
2022/04/28 01:47:17;;;;;;;;;39.50;32.00;;;;;13.58;51.29;102158.84;4927574;28;45380;-68
2022/04/28 01:49:44;;;;;;;;;29.50;26.00;;;;;13.55;51.12;102159.84;4944874;28;45370;-68
2022/04/28 01:54:57;;;;;;;;;31.75;26.00;;;;;13.48;51.47;102153.16;4944714;28;45290;-68
2022/04/28 01:57:27;;;;;;;;;41.50;33.50;;;;;13.46;51.36;102156.81;4944666;28;45390;-68
2022/04/28 01:59:53;;;;;;;;;33.25;31.25;;;;;13.46;51.43;102157.66;4927638;28;45403;-68
2022/04/28 02:02:18;;;;;;;;;33.25;28.50;;;;;13.42;51.67;102161.38;4944554;28;45324;-68
2022/04/28 02:04:44;;;;;;;;;26.25;25.25;;;;;13.40;51.54;102168.53;4943473;28;45372;-67
2022/04/28 02:07:13;;;;;;;;;20.50;19.25;;;;;13.38;51.49;102167.75;4944300;28;45252;-68
2022/04/28 02:09:42;;;;;;;;;34.25;24.75;;;;;13.34;51.61;102168.81;4944662;28;45259;-68
2022/04/28 02:12:12;;;;;;;;;36.25;26.75;;;;;13.31;51.78;102164.56;4944492;28;45272;-68
2022/04/28 02:14:38;;;;;;;;;26.25;19.00;;;;;13.29;52.30;102170.84;4944312;28;46971;-67
2022/04/28 02:17:07;;;;;;;;;26.75;26.25;;;;;13.27;51.70;102175.34;4944435;28;45400;-68
2022/04/28 02:19:32;;;;;;;;;30.75;30.00;;;;;13.21;51.96;102167.72;4944583;28;45444;-69
2022/04/28 02:21:58;;;;;;;;;26.50;24.00;;;;;13.17;51.90;102172.25;4944307;28;45241;-68
2022/04/28 02:24:24;;;;;;;;;27.75;23.75;;;;;13.12;52.07;102174.28;4944232;28;45462;-68
2022/04/28 02:26:49;;;;;;;;;28.00;25.00;;;;;13.05;52.12;102164.91;4944032;28;45554;-68
2022/04/28 02:29:15;;;;;;;;;26.75;23.50;;;;;13.00;52.33;102170.41;4944312;28;45483;-67
2022/04/28 02:31:41;;;;;;;;;29.25;22.50;;;;;12.95;52.32;102166.25;4945903;28;45262;-67
2022/04/28 02:34:07;;;;;;;;;23.75;21.25;;;;;12.93;52.41;102174.25;4944349;28;45315;-68
2022/04/28 02:36:32;;;;;;;;;27.00;26.25;;;;;12.88;52.41;102170.13;4944144;28;45276;-68
2022/04/28 02:38:58;;;;;;;;;28.50;27.50;;;;;12.85;52.60;102179.91;4944078;28;45232;-68
2022/04/28 02:41:23;;;;;;;;;26.75;23.50;;;;;12.83;52.81;102172.97;4944102;28;45234;-68
2022/04/28 02:43:50;;;;;;;;;29.50;27.00;;;;;12.79;52.58;102180.16;4944119;28;46155;-68
2022/04/28 02:46:16;;;;;;;;;31.00;26.50;;;;;12.73;52.79;102180.47;4944008;28;45267;-67
2022/04/28 02:48:41;;;;;;;;;31.75;25.00;;;;;12.70;53.04;102187.66;4926914;28;45311;-68
2022/04/28 02:51:07;;;;;;;;;28.75;24.50;;;;;12.69;52.80;102191.25;4944013;28;45506;-68
2022/04/28 02:53:33;;;;;;;;;29.50;26.50;;;;;12.66;53.31;102184.31;4943705;28;45672;-68
2022/04/28 02:55:59;;;;;;;;;28.50;23.50;;;;;12.67;53.00;102190.47;4943686;28;45400;-68
2022/04/28 02:58:24;;;;;;;;;36.00;28.50;;;;;12.66;53.08;102178.16;4944199;28;45311;-68
2022/04/28 03:00:50;;;;;;;;;32.00;27.00;;;;;12.63;53.16;102183.56;4943846;28;45611;-68
2022/04/28 03:03:15;;;;;;;;;30.25;26.00;;;;;12.63;53.10;102194.16;4943938;28;45664;-68
2022/04/28 03:11:09;;;;;;;;;34.25;26.00;;;;;12.60;53.29;102199.59;4943874;28;45260;-68
2022/04/28 03:13:35;;;;;;;;;27.50;20.25;;;;;12.61;53.29;102196.00;4943631;28;45514;-68
2022/04/28 03:16:01;;;;;;;;;30.50;24.75;;;;;12.61;53.27;102198.66;4943698;28;45226;-68
2022/04/28 03:18:27;;;;;;;;;31.75;28.00;;;;;12.62;53.54;102198.56;4943577;28;45233;-68
2022/04/28 03:20:53;;;;;;;;;35.25;28.00;;;;;12.62;53.54;102193.28;4943730;28;45233;-68
2022/04/28 03:23:19;;;;;;;;;28.50;26.00;;;;;12.61;53.18;102202.16;4943130;28;45438;-68
2022/04/28 03:25:44;;;;;;;;;31.50;25.50;;;;;12.57;53.75;102190.88;4942363;28;45476;-68
2022/04/28 03:28:10;;;;;;;;;33.25;26.00;;;;;12.55;53.52;102187.41;4942656;28;45328;-68
2022/04/28 03:30:36;;;;;;;;;29.75;25.50;;;;;12.56;53.52;102190.94;4943041;28;45313;-68
2022/04/28 03:33:01;;;;;;;;;30.75;25.75;;;;;12.54;53.57;102191.00;4943796;28;45979;-61
2022/04/28 03:35:27;;;;;;;;;29.50;25.25;;;;;12.56;53.70;102185.66;4943262;28;45415;-61
2022/04/28 03:37:52;;;;;;;;;32.00;24.75;;;;;12.54;53.67;102188.34;4943099;28;45290;-61
2022/04/28 03:40:18;;;;;;;;;25.75;24.50;;;;;12.53;53.72;102193.72;4943430;28;45372;-61
2022/04/28 03:42:44;;;;;;;;;30.25;28.25;;;;;12.53;53.67;102191.06;4942783;28;45358;-61
2022/04/28 03:45:11;;;;;;;;;35.75;27.75;;;;;12.51;53.72;102200.84;4943192;28;45368;-61
2022/04/28 03:47:36;;;;;;;;;37.25;30.50;;;;;12.47;53.81;102193.97;4943214;28;45286;-61
2022/04/28 03:50:06;;;;;;;;;33.00;29.00;;;;;12.42;53.76;102193.34;4943207;28;45685;-61
2022/04/28 03:52:32;;;;;;;;;27.50;23.25;;;;;12.40;54.13;102190.75;4942815;28;46286;-61
2022/04/28 03:54:58;;;;;;;;;29.50;28.00;;;;;12.38;53.96;102189.94;4943035;28;45353;-61
2022/04/28 03:57:23;;;;;;;;;36.25;31.00;;;;;12.31;54.13;102188.50;4942878;28;45399;-61
2022/04/28 03:59:49;;;;;;;;;35.50;27.00;;;;;12.29;54.16;102190.34;4943145;28;45435;-61
2022/04/28 04:02:14;;;;;;;;;36.50;31.50;;;;;12.24;54.07;102195.84;4942729;28;45921;-61
2022/04/28 04:04:40;;;;;;;;;33.75;29.50;;;;;12.23;54.48;102201.19;4943123;28;45226;-61
2022/04/28 04:07:06;;;;;;;;;47.25;39.00;;;;;12.19;54.54;102202.25;4942789;28;45330;-61
2022/04/28 04:09:32;;;;;;;;;51.25;37.75;;;;;12.16;54.49;102200.56;4942899;28;45506;-61
2022/04/28 04:11:58;;;;;;;;;44.50;35.00;;;;;12.19;54.42;102204.88;4942526;28;46122;-62
2022/04/28 04:14:23;;;;;;;;;44.00;34.00;;;;;12.18;54.52;102198.75;4942913;28;45268;-61
2022/04/28 04:16:49;;;;;;;;;34.50;30.75;;;;;12.19;54.78;102208.38;4942834;28;45216;-60
2022/04/28 04:19:14;;;;;;;;;36.25;33.25;;;;;12.21;54.29;102203.03;4942688;28;45366;-60
2022/04/28 04:21:39;;;;;;;;;33.75;31.00;;;;;12.19;54.65;102204.88;4942450;28;45836;-60
2022/04/28 04:24:06;;;;;;;;;37.75;33.25;;;;;12.17;54.79;102209.38;4942245;28;45660;-60
2022/04/28 04:26:32;;;;;;;;;35.75;33.75;;;;;12.19;54.59;102212.81;4942608;28;45321;-60
2022/04/28 04:28:58;;;;;;;;;37.25;34.25;;;;;12.22;54.84;102212.66;4942768;28;45308;-60
2022/04/28 04:34:08;;;;;;;;;40.50;35.75;;;;;12.22;54.89;102215.31;4942705;28;45201;-60
2022/04/28 04:36:34;;;;;;;;;39.50;32.75;;;;;12.19;54.78;102216.31;4942510;28;45336;-60
2022/04/28 04:38:59;;;;;;;;;47.50;36.50;;;;;12.21;54.90;102219.75;4941240;28;45244;-60
2022/04/28 04:41:25;;;;;;;;;37.25;34.00;;;;;12.23;54.92;102220.53;4942063;28;45293;-60
2022/04/28 04:43:50;;;;;;;;;33.50;27.75;;;;;12.25;54.84;102223.97;4942470;28;45419;-60
2022/04/28 04:46:16;;;;;;;;;44.75;34.25;;;;;12.27;54.70;102226.56;4942545;28;45213;-60
2022/04/28 04:48:41;;;;;;;;;37.00;32.50;;;;;12.25;54.75;102228.41;4942672;28;45320;-60
2022/04/28 04:51:07;;;;;;;;;41.50;35.00;;;;;12.28;54.91;102222.97;4942030;28;46043;-61
2022/04/28 04:53:32;;;;;;;;;37.50;31.00;;;;;12.27;54.56;102223.91;4942211;28;45352;-61
2022/04/28 04:55:58;;;;;;;;;35.00;28.25;;;;;12.30;54.90;102229.06;4942168;28;45247;-61
2022/04/28 04:58:24;;;;;;;;;40.00;33.75;;;;;12.28;54.99;102226.47;4942454;28;45409;-61
2022/04/28 05:00:49;;;;;;;;;33.50;33.00;;;;;12.26;54.96;102230.97;4941786;28;46034;-61
2022/04/28 05:03:15;;;;;;;;;40.75;33.25;;;;;12.24;54.97;102238.13;4942205;28;45295;-61
2022/04/28 05:05:42;;;;;;;;;43.00;35.25;;;;;12.20;55.22;102233.88;4942077;28;45353;-61
2022/04/28 05:08:07;;;;;;;;;38.50;33.25;;;;;12.16;54.81;102240.19;4941987;28;45462;-60
2022/04/28 05:10:33;;;;;;;;;35.25;31.25;;;;;12.18;55.12;102234.88;4941685;28;45294;-60
2022/04/28 05:12:58;;;;;;;;;39.50;34.25;;;;;12.15;54.81;102246.41;4941859;28;45351;-61
2022/04/28 05:15:24;;;;;;;;;36.75;33.00;;;;;12.15;55.12;102248.19;4941977;28;45309;-60
2022/04/28 05:17:49;;;;;;;;;40.25;34.00;;;;;12.13;55.55;102236.84;4941495;28;45352;-61
2022/04/28 05:20:15;;;;;;;;;39.50;31.00;;;;;12.11;54.96;102241.34;4941815;28;45474;-61
2022/04/28 05:22:40;;;;;;;;;50.50;36.00;;;;;12.05;55.17;102245.06;4941775;28;45286;-61
2022/04/28 05:25:06;;;;;;;;;40.00;34.00;;;;;12.04;55.53;102250.44;4941625;28;45283;-60
2022/04/28 05:27:31;;;;;;;;;35.00;29.75;;;;;12.06;55.57;102260.00;4942111;28;45220;-61
2022/04/28 05:29:57;;;;;;;;;43.25;33.75;;;;;12.08;55.41;102257.28;4941563;28;46028;-61
2022/04/28 05:32:22;;;;;;;;;40.75;34.50;;;;;12.14;55.34;102265.81;4932596;28;45628;-60
2022/04/28 05:34:48;;;;;;;;;37.50;33.75;;;;;12.17;55.63;102271.00;4941790;28;45161;-61
2022/04/28 05:37:14;;;;;;;;;43.75;35.50;;;;;12.26;55.46;102275.91;4931845;28;45272;-61
2022/04/28 05:39:42;;;;;;;;;46.25;34.50;;;;;12.32;55.27;102269.47;4941516;28;45541;-61
2022/04/28 05:42:09;;;;;;;;;42.50;35.50;;;;;12.40;55.06;102277.97;4940738;28;45312;-60
2022/04/28 05:47:39;;;;;;;;;35.75;34.75;;;;;12.56;55.16;102276.38;4863660;29;45338;-61
2022/04/28 05:50:05;;;;;;;;;43.50;35.25;;;;;12.65;55.09;102288.34;4864288;29;46013;-61
2022/04/28 05:52:31;;;;;;;;;41.50;34.75;;;;;12.73;54.83;102286.22;4902420;28;45419;-61
2022/04/28 05:54:56;;;;;;;;;40.25;31.00;;;;;12.82;54.93;102287.59;4944813;28;45498;-61
2022/04/28 05:57:22;;;;;;;;;46.25;36.75;;;;;12.91;54.50;102289.84;4944859;28;45482;-61
2022/04/28 05:59:47;;;;;;;;;41.75;33.75;;;;;12.99;54.16;102289.50;4944638;28;45256;-61
2022/04/28 06:02:13;;;;;;;;;44.00;36.00;;;;;13.07;54.22;102287.38;4944799;28;45315;-61
2022/04/28 06:04:38;;;;;;;;;36.50;31.25;;;;;13.11;54.20;102299.53;4944780;28;45278;-61
2022/04/28 06:07:05;;;;;;;;;36.50;33.50;;;;;13.14;53.96;102289.69;4944427;28;45220;-61
2022/04/28 06:09:31;;;;;;;;;43.25;33.50;;;;;13.28;53.90;102296.19;4931493;28;45332;-61
2022/04/28 06:11:56;;;;;;;;;40.00;33.25;;;;;13.39;53.72;102299.16;4944105;28;45275;-60
2022/04/28 06:14:22;;;;;;;;;39.75;34.75;;;;;13.48;53.63;102304.03;4944605;28;45281;-60
2022/04/28 06:16:47;;;;;;;;;36.50;33.00;;;;;13.55;53.41;102308.13;4943055;28;45348;-60
2022/04/28 06:19:13;;;;;;;;;39.00;35.00;;;;;13.59;53.50;102311.50;4943344;28;45354;-65
2022/04/28 06:21:38;;;;;;;;;39.50;33.50;;;;;13.66;53.42;102304.97;4943901;28;45404;-67
2022/04/28 06:24:04;;;;;;;;;42.00;36.00;;;;;13.73;53.24;102306.38;4944691;28;45279;-70
2022/04/28 06:26:29;;;;;;;;;37.00;32.25;;;;;13.76;53.16;102303.63;4944455;28;45398;-70
2022/04/28 06:28:55;;;;;;;;;49.00;38.75;;;;;13.84;52.95;102308.53;4944028;28;45690;-69
2022/04/28 06:31:20;;;;;;;;;45.75;36.00;;;;;13.92;52.85;102316.97;4944151;28;45416;-70
2022/04/28 06:33:47;;;;;;;;;35.75;33.00;;;;;13.95;52.88;102312.38;4939103;28;45352;-65
2022/04/28 06:36:13;;;;;;;;;39.00;35.00;;;;;14.07;52.73;102312.75;4937664;28;45379;-64
2022/04/28 06:38:38;;;;;;;;;35.25;31.75;;;;;14.20;52.89;102325.28;4943510;28;46440;-64
2022/04/28 06:41:04;;;;;;;;;41.75;33.25;;;;;14.28;52.52;102324.91;4943649;28;45160;-64
2022/04/28 06:43:29;;;;;;;;;45.25;36.75;;;;;14.37;51.98;102328.91;4943819;28;45428;-65
2022/04/28 06:46:13;;;;;;;;;43.25;34.50;;;;;14.41;51.82;102323.38;4943361;28;45379;-64
2022/04/28 06:48:38;;;;;;;;;40.25;35.50;;;;;14.45;51.72;102324.97;4925919;28;46998;-64
2022/04/28 06:51:04;;;;;;;;;46.25;37.25;;;;;14.46;51.69;102331.16;4941934;28;45380;-63
2022/04/28 06:53:30;;;;;;;;;43.25;34.75;;;;;14.48;51.71;102329.28;4943421;28;45247;-64
2022/04/28 06:55:55;;;;;;;;;50.75;38.50;;;;;14.55;51.93;102329.81;4942683;28;45427;-64
2022/04/28 06:58:21;;;;;;;;;45.00;36.25;;;;;14.63;51.47;102338.25;4942445;28;47089;-64
2022/04/28 07:00:49;;;;;;;;;39.75;33.25;;;;;14.71;51.59;102342.22;4943517;28;45282;-64
2022/04/28 07:03:14;;;;;;;;;42.25;33.25;;;;;14.79;51.19;102339.19;4942944;28;45461;-64
2022/04/28 07:05:40;;;;;;;;;41.50;35.25;;;;;14.79;51.15;102334.72;4943654;28;45308;-64
2022/04/28 07:08:06;;;;;;;;;44.50;36.50;;;;;14.79;51.13;102340.03;4943191;28;45945;-64
2022/04/28 07:10:31;;;;;;;;;45.00;34.75;;;;;14.76;51.32;102337.53;4943369;28;45234;-64
2022/04/28 07:12:57;;;;;;;;;50.50;38.00;;;;;14.77;51.42;102344.56;4944030;28;45268;-64
2022/04/28 07:15:22;;;;;;;;;40.00;35.25;;;;;14.81;51.12;102342.59;4940633;28;45460;-66
2022/04/28 07:17:48;;;;;;;;;45.25;39.00;;;;;14.84;50.98;102341.59;4941974;28;47061;-64
2022/04/28 07:20:13;;;;;;;;;37.50;32.25;;;;;14.83;51.49;102346.03;4937010;28;45313;-59
2022/04/28 07:22:40;;;;;;;;;45.50;34.50;;;;;14.89;53.83;102340.41;4943215;28;45376;-62
2022/04/28 07:25:06;;;;;;;;;47.75;37.75;;;;;15.02;51.60;102349.47;4942821;28;45472;-67
2022/04/28 07:27:32;;;;;;;;;37.25;32.75;;;;;15.06;52.73;102343.03;4943070;28;45698;-64
2022/04/28 07:29:57;;;;;;;;;41.25;32.75;;;;;15.22;52.38;102343.09;4942796;28;45557;-63
2022/04/28 07:32:23;;;;;;;;;50.00;40.50;;;;;15.30;50.88;102340.88;4943766;28;45409;-76
2022/04/28 07:34:48;;;;;;;;;45.00;35.75;;;;;15.32;50.65;102349.66;4942747;28;45467;-73
2022/04/28 07:37:14;;;;;;;;;41.25;34.75;;;;;15.31;50.75;102341.75;4942605;28;46049;-68
2022/04/28 07:39:39;;;;;;;;;38.75;34.50;;;;;15.31;50.38;102344.38;4942681;28;45511;-68
2022/04/28 07:42:05;;;;;;;;;50.00;37.00;;;;;15.33;50.59;102350.50;4942895;28;45424;-69
2022/04/28 07:44:30;;;;;;;;;42.25;37.50;;;;;15.36;50.61;102352.97;4942882;28;45225;-70
2022/04/28 07:46:56;;;;;;;;;48.00;38.25;;;;;15.43;50.30;102345.53;4942866;28;45959;-69
2022/04/28 07:49:22;;;;;;;;;48.75;38.25;;;;;15.47;50.83;102355.03;4942570;28;45325;-69
2022/04/28 07:51:48;;;;;;;;;42.00;35.00;;;;;15.52;50.22;102355.66;4942710;28;45475;-71
2022/04/28 07:54:14;;;;;;;;;52.50;42.00;;;;;15.55;50.25;102358.16;4940200;28;45341;-64
2022/04/28 07:56:40;;;;;;;;;45.00;38.00;;;;;15.57;50.40;102358.94;4942827;28;45562;-69
2022/04/28 07:59:07;;;;;;;;;27.50;23.00;;;;;15.56;50.55;102360.75;4924975;28;45328;-74
2022/04/28 08:01:33;;;;;;;;;40.75;35.00;;;;;15.62;50.29;102365.72;4941213;28;45442;-71
2022/04/28 08:03:59;;;;;;;;;43.00;35.25;;;;;15.67;50.37;102360.19;4942361;28;45400;-71
2022/04/28 08:06:25;;;;;;;;;46.00;37.50;;;;;15.72;50.31;102366.13;4942300;28;46531;-71
2022/04/28 08:08:50;;;;;;;;;45.75;37.00;;;;;15.78;50.19;102359.56;4941804;28;45336;-71
2022/04/28 08:11:16;;;;;;;;;43.50;35.25;;;;;15.84;50.38;102373.38;4942276;28;45422;-72
2022/04/28 08:13:42;;;;;;;;;39.50;34.00;;;;;15.92;50.21;102370.31;4942379;28;45234;-71
2022/04/28 08:16:08;;;;;;;;;41.00;34.50;;;;;15.99;49.91;102366.38;4942604;28;46314;-72
2022/04/28 08:18:36;;;;;;;;;49.75;36.50;;;;;16.07;49.97;102361.47;4942465;28;45337;-73
2022/04/28 08:21:02;;;;;;;;;40.25;35.25;;;;;16.17;49.80;102361.81;4942919;28;45319;-72
2022/04/28 08:23:27;;;;;;;;;42.50;35.25;;;;;16.25;49.75;102359.56;4942582;28;45491;-70
2022/04/28 08:25:53;;;;;;;;;37.75;32.00;;;;;16.25;49.21;102362.22;4942481;28;46033;-71
2022/04/28 08:28:19;;;;;;;;;41.25;33.75;;;;;16.29;49.48;102366.44;4942423;28;45361;-72
2022/04/28 08:30:44;;;;;;;;;37.50;33.50;;;;;16.31;49.49;102366.34;4942489;28;45239;-71
2022/04/28 08:33:10;;;;;;;;;39.50;33.25;;;;;16.41;49.39;102364.84;4942551;28;45351;-70
2022/04/28 08:35:35;;;;;;;;;42.75;34.00;;;;;16.51;49.62;102368.72;4942546;28;45277;-72
2022/04/28 08:38:01;;;;;;;;;34.75;32.00;;;;;16.65;49.29;102354.59;4942029;28;45764;-72
2022/04/28 08:40:26;;;;;;;;;42.75;35.25;;;;;16.76;49.07;102364.66;4942230;28;45182;-71
2022/04/28 08:42:53;;;;;;;;;37.00;33.50;;;;;16.83;48.45;102363.34;4942482;28;45230;-70
2022/04/28 08:45:26;;;;;;;;;42.75;34.50;;;;;16.88;48.30;102374.53;4942634;28;46399;-71
2022/04/28 08:47:53;;;;;;;;;34.50;32.00;;;;;16.93;47.74;102364.50;4942326;28;45366;-72
2022/04/28 08:50:21;;;;;;;;;41.25;34.75;;;;;16.98;47.76;102365.03;4942482;28;45303;-71
2022/04/28 08:52:48;;;;;;;;;33.50;31.50;;;;;17.07;47.48;102366.31;4924833;28;45436;-71
2022/04/28 08:55:15;;;;;;;;;35.00;29.25;;;;;17.16;47.73;102361.28;4924781;28;47898;-70
2022/04/28 08:57:40;;;;;;;;;39.00;34.00;;;;;17.27;47.86;102365.94;4942235;28;45272;-70
2022/04/28 09:00:06;;;;;;;;;38.25;33.75;;;;;17.34;47.41;102353.97;4942490;28;45409;-69
2022/04/28 09:02:33;;;;;;;;;37.50;34.00;;;;;17.40;47.26;102352.75;4942281;28;45165;-70
2022/04/28 09:05:07;;;;;;;;;35.75;32.25;;;;;17.42;47.14;102351.69;4942196;28;45934;-71
2022/04/28 09:07:34;;;;;;;;;36.75;33.75;;;;;17.46;46.94;102349.69;4941894;28;45266;-71
2022/04/28 09:10:00;;;;;;;;;38.75;32.25;;;;;17.53;47.10;102353.66;4940949;28;45409;-71
2022/04/28 09:12:26;;;;;;;;;35.50;31.50;;;;;17.59;46.81;102351.47;4942197;28;45324;-71
2022/04/28 09:14:55;;;;;;;;;35.00;31.50;;;;;17.65;47.11;102344.91;4941967;28;45417;-73
2022/04/28 09:17:20;;;;;;;;;37.25;31.50;;;;;17.74;46.95;102347.00;4941818;28;45172;-72
2022/04/28 09:19:46;;;;;;;;;34.75;30.50;;;;;17.88;46.95;102342.63;4942136;28;45237;-72
2022/04/28 09:22:13;;;;;;;;;30.75;27.50;;;;;17.99;46.15;102332.94;4941689;28;45221;-72
2022/04/28 09:24:44;;;;;;;;;32.50;28.00;;;;;18.04;46.25;102346.00;4942160;28;45426;-72
2022/04/28 09:27:11;;;;;;;;;35.25;30.75;;;;;18.07;45.73;102340.47;4927860;28;45185;-72
2022/04/28 09:29:41;;;;;;;;;34.50;28.50;;;;;18.14;45.92;102339.09;4945436;28;45328;-71
2022/04/28 09:32:11;;;;;;;;;28.75;26.50;;;;;18.22;45.50;102331.44;4946537;28;45380;-70
2022/04/28 09:34:47;;;;;;;;;31.75;29.00;;;;;18.34;45.98;102335.97;4944827;28;46443;-71
2022/04/28 09:37:19;;;;;;;;;30.00;26.75;;;;;18.48;45.31;102326.19;4944917;28;45245;-71
2022/04/28 09:42:39;;;;;;;;;27.00;25.75;;;;;18.69;45.13;102319.44;4945044;28;45492;-72
2022/04/28 09:45:05;;;;;;;;;30.50;26.25;;;;;18.81;44.67;102326.59;4944768;28;46407;-71
2022/04/28 09:47:32;;;;;;;;;28.50;26.75;;;;;18.92;44.36;102326.72;4944947;28;45371;-71
2022/04/28 09:49:58;;;;;;;;;33.00;28.25;;;;;18.99;44.44;102323.63;4944884;28;45523;-72
2022/04/28 09:52:24;;;;;;;;;29.25;25.50;;;;;19.08;44.15;102330.97;4944728;28;45328;-70
2022/04/28 09:54:56;;;;;;;;;31.00;30.00;;;;;19.09;44.10;102322.00;4944903;28;45263;-71
2022/04/28 09:57:22;;;;;;;;;32.50;28.50;;;;;19.07;43.75;102326.63;4944520;28;45299;-72
2022/04/28 09:59:55;;;;;;;;;27.50;23.00;;;;;19.04;44.00;102310.78;4944888;28;45499;-72
2022/04/28 10:02:22;;;;;;;;;29.25;26.00;;;;;19.07;43.89;102315.94;4944851;28;45248;-71
2022/04/28 10:04:49;;;;;;;;;30.75;24.00;;;;;19.12;43.49;102313.81;4943458;28;46685;-71
2022/04/28 10:07:16;;;;;;;;;22.00;18.25;;;;;19.20;43.62;102309.63;4944337;28;45263;-72
2022/04/28 10:09:45;;;;;;;;;29.75;25.50;;;;;19.26;43.87;102313.66;4944508;28;45361;-73
2022/04/28 10:12:13;;;;;;;;;31.75;27.50;;;;;19.25;43.88;102312.81;4944634;28;45381;-72
2022/04/28 10:14:42;;;;;;;;;27.00;24.25;;;;;19.26;43.57;102310.97;4944166;28;45268;-72
2022/04/28 10:17:17;;;;;;;;;22.50;19.00;;;;;19.28;42.35;102314.44;4944346;28;45496;-72
2022/04/28 10:19:50;;;;;;;;;23.00;19.00;;;;;19.33;42.15;102304.25;4944044;28;45323;-72
2022/04/28 10:22:20;;;;;;;;;20.00;18.50;;;;;19.38;42.19;102298.59;4943864;28;45486;-72
2022/04/28 10:33:19;;;;;;;;;18.50;15.75;;;;;19.79;40.87;102300.94;4944976;28;45389;-73
2022/04/28 10:35:48;;;;;;;;;16.00;15.00;;;;;19.91;39.82;102296.53;4944342;28;45516;-72
2022/04/28 10:38:31;;;;;;;;;18.75;16.25;;;;;20.04;40.14;102292.81;4943687;28;45237;-72
2022/04/28 10:41:08;;;;;;;;;21.00;17.25;;;;;20.09;39.28;102289.81;4943838;28;45273;-72
2022/04/28 10:43:33;;;;;;;;;19.50;15.50;;;;;20.10;39.76;102299.53;4944092;28;45184;-73
2022/04/28 10:46:01;;;;;;;;;17.75;13.25;;;;;20.14;39.27;102286.78;4943662;28;45440;-72
2022/04/28 10:48:29;;;;;;;;;14.75;14.00;;;;;20.22;38.98;102289.72;4944016;28;45376;-72
2022/04/28 10:51:01;;;;;;;;;17.50;16.25;;;;;20.28;38.53;102279.41;4943752;28;45215;-72
2022/04/28 10:53:27;;;;;;;;;17.75;15.75;;;;;20.33;38.91;102279.94;4944123;28;45409;-71
2022/04/28 10:55:52;;;;;;;;;14.25;13.00;;;;;20.33;38.23;102279.06;4943306;28;45415;-73
2022/04/28 10:58:19;;;;;;;;;15.00;13.75;;;;;20.35;37.84;102274.44;4943761;28;45313;-72
2022/04/28 11:00:55;;;;;;;;;16.50;14.50;;;;;20.39;38.28;102272.41;4943811;28;45466;-70
2022/04/28 11:03:54;;;;;;;;;25.00;17.75;;;;;20.45;38.66;102286.19;4943877;28;45522;-72
2022/04/28 11:06:28;;;;;;;;;22.50;16.00;;;;;20.52;37.61;102282.06;4935894;28;46358;-72
2022/04/28 11:08:56;;;;;;;;;12.25;12.00;;;;;20.59;37.56;102275.28;4943269;28;45280;-72
2022/04/28 11:11:25;;;;;;;;;18.50;15.50;;;;;20.70;37.98;102276.28;4943723;28;45407;-73
2022/04/28 11:13:57;;;;;;;;;16.75;13.75;;;;;20.82;38.10;102273.50;4943742;28;45388;-72
2022/04/28 11:16:24;;;;;;;;;15.00;13.00;;;;;20.90;37.30;102273.75;4943450;28;45390;-73
2022/04/28 11:18:49;;;;;;;;;13.75;12.00;;;;;21.02;37.25;102276.44;4943422;28;45357;-70
2022/04/28 11:21:15;;;;;;;;;12.75;12.75;;;;;21.13;36.85;102279.97;4943566;28;45475;-72
2022/04/28 11:23:44;;;;;;;;;17.25;13.00;;;;;21.23;36.43;102284.59;4943502;28;45240;-72
2022/04/28 11:26:12;;;;;;;;;11.75;11.75;;;;;21.29;35.95;102278.78;4943796;28;45236;-69
2022/04/28 11:28:39;;;;;;;;;13.00;9.50;;;;;21.23;35.80;102273.88;4942820;28;45410;-73
2022/04/28 11:31:12;;;;;;;;;12.50;10.75;;;;;21.14;35.55;102289.72;4943398;28;45326;-70
2022/04/28 11:33:42;;;;;;;;;11.00;9.00;;;;;21.03;35.55;102284.34;4940962;28;45504;-72
2022/04/28 11:36:23;;;;;;;;;11.00;11.00;;;;;20.98;35.35;102294.56;4942958;28;45272;-72